Time;durP1;ratioP1;P1;durP2;ratioP2;P2;SDS_P1;SDS_P2;PMS_P1;PMS_P2;Temp;Humidity;BMP_temperature;BMP_pressure;BME280_temperature;BME280_humidity;BME280_pressure;Samples;Min_cycle;Max_cycle;Signal;HPM_P1;HPM_P2
2023/06/11 00:02:15;;;;;;;5.32;4.82;;;24.10;63.30;;;;;;5037588;28;20227;-68
2023/06/11 00:04:45;;;;;;;5.55;5.00;;;24.00;63.60;;;;;;5033765;28;20202;-67
2023/06/11 00:07:13;;;;;;;6.07;5.13;;;24.00;63.60;;;;;;5034804;28;20201;-68
2023/06/11 00:09:41;;;;;;;5.57;4.72;;;24.00;64.20;;;;;;5051996;28;20204;-69
2023/06/11 00:12:09;;;;;;;5.38;4.55;;;23.90;63.90;;;;;;5048827;28;20273;-69
2023/06/11 00:14:35;;;;;;;6.10;4.93;;;23.90;64.20;;;;;;5038236;28;20190;-68
2023/06/11 00:17:00;;;;;;;5.30;4.72;;;23.90;65.20;;;;;;5037207;28;20192;-66
2023/06/11 00:19:29;;;;;;;5.95;4.82;;;23.80;64.70;;;;;;5039214;28;20173;-69
2023/06/11 00:21:56;;;;;;;5.18;4.30;;;23.80;64.80;;;;;;5038876;28;20256;-67
2023/06/11 00:24:25;;;;;;;4.72;4.30;;;23.80;65.20;;;;;;5055539;28;20197;-69
2023/06/11 00:26:50;;;;;;;4.82;4.32;;;23.70;65.20;;;;;;5037941;28;20174;-67
2023/06/11 00:29:20;;;;;;;4.65;4.18;;;23.70;65.40;;;;;;5038309;28;20293;-68
2023/06/11 00:31:46;;;;;;;4.53;4.13;;;23.70;66.10;;;;;;5038789;28;20169;-68
2023/06/11 00:34:14;;;;;;;3.95;3.58;;;23.60;65.70;;;;;;5054967;28;20268;-68
2023/06/11 00:36:40;;;;;;;4.57;4.18;;;23.60;65.90;;;;;;5038222;28;20216;-67
2023/06/11 00:39:06;;;;;;;5.60;4.32;;;23.60;66.10;;;;;;5026242;28;20227;-69
2023/06/11 00:41:31;;;;;;;5.60;4.50;;;23.50;66.40;;;;;;5032631;28;20177;-66
2023/06/11 00:44:00;;;;;;;5.60;4.93;;;23.50;66.60;;;;;;5055373;28;20178;-68
2023/06/11 00:46:31;;;;;;;5.18;4.68;;;23.50;67.10;;;;;;5054490;28;20308;-67
2023/06/11 00:49:00;;;;;;;6.00;5.28;;;23.40;67.10;;;;;;5037980;28;20185;-68
2023/06/11 00:51:26;;;;;;;5.45;4.95;;;23.40;67.30;;;;;;5052714;28;20162;-70
2023/06/11 00:53:54;;;;;;;7.35;4.93;;;23.30;67.50;;;;;;5024480;28;20193;-67
2023/06/11 00:56:20;;;;;;;5.45;4.68;;;23.30;68.20;;;;;;5035110;28;20177;-69
2023/06/11 00:58:48;;;;;;;5.13;4.53;;;23.30;68.00;;;;;;5036859;28;20177;-68
2023/06/11 01:01:25;;;;;;;5.57;4.30;;;23.30;68.50;;;;;;5037889;28;20256;-69
2023/06/11 01:04:05;;;;;;;5.22;4.57;;;23.30;69.30;;;;;;5054516;28;20218;-68
2023/06/11 01:06:36;;;;;;;4.95;4.45;;;23.20;70.00;;;;;;5038000;28;20178;-68
2023/06/11 01:09:05;;;;;;;5.55;4.95;;;23.20;69.20;;;;;;5028519;28;20180;-68
2023/06/11 01:11:34;;;;;;;4.97;4.47;;;23.20;69.30;;;;;;5047899;28;20169;-68
2023/06/11 01:14:00;;;;;;;5.85;4.75;;;23.20;69.60;;;;;;5038080;28;20169;-66
2023/06/11 01:16:45;;;;;;;6.38;4.28;;;23.20;69.60;;;;;;5038017;28;20208;-69
2023/06/11 01:19:31;;;;;;;4.78;4.38;;;23.20;71.40;;;;;;5032308;28;20202;-68
2023/06/11 01:22:16;;;;;;;4.53;4.13;;;23.20;71.20;;;;;;5030258;28;20209;-68
2023/06/11 01:24:58;;;;;;;4.35;3.95;;;23.20;71.70;;;;;;5036152;28;20201;-68
2023/06/11 01:27:33;;;;;;;4.78;4.28;;;23.10;71.50;;;;;;5042523;28;20161;-68
2023/06/11 01:30:00;;;;;;;4.45;4.05;;;23.10;71.00;;;;;;5038010;28;20499;-69
2023/06/11 01:32:27;;;;;;;4.40;3.95;;;23.10;70.90;;;;;;5051466;28;20189;-68
2023/06/11 01:35:03;;;;;;;4.55;4.15;;;23.10;70.90;;;;;;5037752;28;20168;-68
2023/06/11 01:37:32;;;;;;;4.28;3.88;;;23.10;71.90;;;;;;5037635;28;20181;-67
2023/06/11 01:39:58;;;;;;;5.15;4.18;;;23.00;71.00;;;;;;5037429;28;20231;-67
2023/06/11 01:42:24;;;;;;;4.40;4.00;;;23.00;71.10;;;;;;5037710;28;20205;-69
2023/06/11 01:44:50;;;;;;;4.47;4.07;;;23.00;71.30;;;;;;5034175;28;20201;-68
2023/06/11 01:47:17;;;;;;;4.47;4.00;;;23.00;71.60;;;;;;5037735;28;20223;-67
2023/06/11 01:49:43;;;;;;;4.40;4.00;;;23.00;71.80;;;;;;5047004;28;20227;-66
2023/06/11 01:52:09;;;;;;;4.47;4.07;;;23.00;71.90;;;;;;5043758;28;20165;-69
2023/06/11 01:54:35;;;;;;;4.50;4.05;;;23.00;72.10;;;;;;5046413;28;20210;-67
2023/06/11 01:57:00;;;;;;;4.85;4.35;;;23.00;72.20;;;;;;5046290;28;20213;-67
2023/06/11 01:59:28;;;;;;;4.30;3.90;;;22.90;72.20;;;;;;5036916;28;20177;-67
2023/06/11 02:01:56;;;;;;;4.10;3.72;;;22.90;72.80;;;;;;5053729;28;20218;-67
2023/06/11 02:04:22;;;;;;;5.20;4.07;;;22.90;72.60;;;;;;5036958;28;20188;-68
2023/06/11 02:06:49;;;;;;;4.32;3.92;;;22.90;72.80;;;;;;5054350;28;20173;-68
2023/06/11 02:09:17;;;;;;;4.38;3.97;;;22.90;72.90;;;;;;5037000;28;20197;-67
2023/06/11 02:11:45;;;;;;;4.68;4.00;;;22.80;73.00;;;;;;5037013;28;20176;-67
2023/06/11 02:14:11;;;;;;;4.80;4.30;;;22.80;73.30;;;;;;5034132;28;20181;-68
2023/06/11 02:16:39;;;;;;;4.28;3.90;;;22.80;73.50;;;;;;5024729;28;20281;-67
2023/06/11 02:19:07;;;;;;;4.20;3.80;;;22.70;73.50;;;;;;5033866;28;20186;-68
2023/06/11 02:21:35;;;;;;;4.28;3.88;;;22.70;73.80;;;;;;5039913;28;20177;-68
2023/06/11 02:24:04;;;;;;;4.75;4.20;;;22.70;74.60;;;;;;5036901;28;20189;-67
2023/06/11 02:26:29;;;;;;;4.28;3.80;;;22.70;74.20;;;;;;5027251;28;20201;-67
2023/06/11 02:28:57;;;;;;;5.00;3.90;;;22.60;74.30;;;;;;5030382;28;20244;-68
2023/06/11 02:31:23;;;;;;;7.85;4.43;;;22.60;75.00;;;;;;5024538;28;20189;-68
2023/06/11 02:33:49;;;;;;;4.38;3.97;;;22.60;74.70;;;;;;5053358;28;20212;-68
2023/06/11 02:36:17;;;;;;;4.50;4.00;;;22.60;74.90;;;;;;5036910;28;20205;-67
2023/06/11 02:38:43;;;;;;;4.30;3.90;;;22.50;75.00;;;;;;5036898;28;20197;-67
2023/06/11 02:41:08;;;;;;;6.85;3.80;;;22.50;75.30;;;;;;5038166;28;20240;-67
2023/06/11 02:43:34;;;;;;;4.70;4.20;;;22.50;75.40;;;;;;5057513;28;20173;-68
2023/06/11 02:46:04;;;;;;;4.68;4.25;;;22.40;75.60;;;;;;5040603;28;20203;-68
2023/06/11 02:48:30;;;;;;;4.85;4.20;;;22.40;76.30;;;;;;5037252;28;20217;-67
2023/06/11 02:50:58;;;;;;;4.82;3.97;;;22.40;76.00;;;;;;5020952;28;20197;-67
2023/06/11 02:53:23;;;;;;;4.53;4.00;;;22.40;76.20;;;;;;5023776;28;20178;-67
2023/06/11 02:55:54;;;;;;;4.63;4.18;;;22.30;76.40;;;;;;5037477;28;20178;-67
2023/06/11 02:58:20;;;;;;;4.30;3.90;;;22.30;77.00;;;;;;5052332;28;20177;-67
2023/06/11 03:00:48;;;;;;;4.18;3.30;;;22.30;76.70;;;;;;5040956;28;20185;-67
2023/06/11 03:03:13;;;;;;;4.72;4.30;;;22.30;77.00;;;;;;5056962;28;20448;-67
2023/06/11 03:05:39;;;;;;;4.65;4.10;;;22.20;77.10;;;;;;5040282;28;20197;-67
2023/06/11 03:08:07;;;;;;;4.30;3.90;;;22.20;77.30;;;;;;5040150;28;20181;-66
2023/06/11 03:10:32;;;;;;;4.35;3.95;;;22.20;77.60;;;;;;5030126;28;20172;-66
2023/06/11 03:13:00;;;;;;;4.97;3.90;;;22.20;77.80;;;;;;5047137;28;20253;-66
2023/06/11 03:15:26;;;;;;;4.38;3.97;;;22.10;78.10;;;;;;5056683;28;20412;-67
2023/06/11 03:17:51;;;;;;;5.93;4.28;;;22.10;78.30;;;;;;5056734;28;20269;-67
2023/06/11 03:20:17;;;;;;;4.47;4.07;;;22.10;78.50;;;;;;5040321;28;20177;-66
2023/06/11 03:22:43;;;;;;;4.60;4.20;;;22.00;78.70;;;;;;5039747;28;20181;-67
2023/06/11 03:25:10;;;;;;;4.70;4.25;;;22.00;79.00;;;;;;5039665;28;20259;-67
2023/06/11 03:27:37;;;;;;;4.70;4.30;;;21.90;79.10;;;;;;5036343;28;20174;-67
2023/06/11 03:30:05;;;;;;;4.47;3.92;;;21.90;79.50;;;;;;5045569;28;20201;-67
2023/06/11 03:32:31;;;;;;;4.82;4.43;;;21.80;79.70;;;;;;5039222;28;20166;-67
2023/06/11 03:34:57;;;;;;;5.03;4.63;;;21.80;80.00;;;;;;5032162;28;20192;-67
2023/06/11 03:37:22;;;;;;;4.80;4.30;;;21.80;80.30;;;;;;5037826;28;20211;-67
2023/06/11 03:39:48;;;;;;;5.95;4.50;;;21.70;80.50;;;;;;5055581;28;20208;-67
2023/06/11 03:42:14;;;;;;;6.03;4.60;;;21.70;80.70;;;;;;5051067;28;20255;-67
2023/06/11 03:44:39;;;;;;;4.93;4.43;;;21.70;81.10;;;;;;5033868;28;20197;-67
2023/06/11 03:47:05;;;;;;;5.53;4.55;;;21.60;81.40;;;;;;5039112;28;20197;-67
2023/06/11 03:49:33;;;;;;;4.85;4.35;;;21.60;81.80;;;;;;5038816;28;20182;-67
2023/06/11 03:51:59;;;;;;;5.28;4.38;;;21.60;82.30;;;;;;5052282;28;20200;-67
2023/06/11 03:54:25;;;;;;;5.72;4.47;;;21.50;82.40;;;;;;5034944;28;20209;-66
2023/06/11 03:56:50;;;;;;;5.20;4.70;;;21.50;82.80;;;;;;5038808;28;20173;-67
2023/06/11 03:59:16;;;;;;;7.93;4.32;;;21.50;83.10;;;;;;5039322;28;20181;-67
2023/06/11 04:01:47;;;;;;;5.70;4.63;;;21.50;83.50;;;;;;5051136;28;20284;-67
2023/06/11 04:04:12;;;;;;;4.63;4.22;;;21.40;84.20;;;;;;5036901;28;20239;-67
2023/06/11 04:06:42;;;;;;;4.75;4.35;;;21.40;84.00;;;;;;5035497;28;20166;-67
2023/06/11 04:09:12;;;;;;;5.90;4.40;;;21.40;85.00;;;;;;5044050;28;20198;-67
2023/06/11 04:11:40;;;;;;;5.82;4.63;;;21.40;85.30;;;;;;5046426;28;20400;-67
2023/06/11 04:14:06;;;;;;;6.55;4.90;;;21.40;85.10;;;;;;5028912;28;20212;-66
2023/06/11 04:16:31;;;;;;;4.68;4.03;;;21.40;85.70;;;;;;5026665;28;20259;-67
2023/06/11 04:18:57;;;;;;;4.80;4.30;;;21.40;86.00;;;;;;5036122;28;20178;-67
2023/06/11 04:21:25;;;;;;;5.30;4.80;;;21.40;86.30;;;;;;5038411;28;20200;-67
2023/06/11 04:23:53;;;;;;;4.72;4.20;;;21.40;86.60;;;;;;5037097;28;20208;-67
2023/06/11 04:26:19;;;;;;;5.53;4.55;;;21.40;86.90;;;;;;5055271;28;20208;-67
2023/06/11 04:28:45;;;;;;;5.80;4.22;;;21.40;87.30;;;;;;5047165;28;20185;-67
2023/06/11 04:31:11;;;;;;;5.45;4.45;;;21.40;87.60;;;;;;5054907;28;20212;-66
2023/06/11 04:33:40;;;;;;;4.55;4.15;;;21.40;88.00;;;;;;5038839;28;20177;-67
2023/06/11 04:36:07;;;;;;;5.07;4.25;;;21.50;89.20;;;;;;5038601;28;20181;-66
2023/06/11 04:38:37;;;;;;;5.20;4.18;;;21.50;88.80;;;;;;5040973;28;20209;-68
2023/06/11 04:41:11;;;;;;;5.90;4.72;;;21.50;89.20;;;;;;5038623;28;20196;-67
2023/06/11 04:43:40;;;;;;;4.90;4.40;;;21.50;89.70;;;;;;5039571;28;20187;-67
2023/06/11 04:46:06;;;;;;;4.50;4.10;;;21.50;89.70;;;;;;5056045;28;20292;-67
2023/06/11 04:48:35;;;;;;;4.50;4.10;;;21.60;90.10;;;;;;5038883;28;20227;-67
2023/06/11 04:51:01;;;;;;;5.07;4.00;;;21.60;90.20;;;;;;5037972;28;20176;-67
2023/06/11 04:53:36;;;;;;;4.97;4.50;;;21.60;90.30;;;;;;5038302;28;20179;-67
2023/06/11 04:56:05;;;;;;;3.92;3.58;;;21.70;90.60;;;;;;5054993;28;20398;-67
2023/06/11 04:58:30;;;;;;;4.95;4.40;;;21.70;90.50;;;;;;5038059;28;20212;-67
2023/06/11 05:00:57;;;;;;;4.63;4.22;;;21.80;90.70;;;;;;5038496;28;20181;-67
2023/06/11 05:03:27;;;;;;;8.82;4.15;;;21.80;90.90;;;;;;5034043;28;20182;-67
2023/06/11 05:05:54;;;;;;;4.63;4.22;;;21.80;91.40;;;;;;5034735;28;20211;-67
2023/06/11 05:08:28;;;;;;;4.95;4.25;;;21.90;91.20;;;;;;5054780;28;20207;-67
2023/06/11 05:10:56;;;;;;;4.82;4.18;;;21.90;91.90;;;;;;5054770;28;20172;-67
2023/06/11 05:13:24;;;;;;;4.55;4.15;;;21.90;91.40;;;;;;5054519;28;20197;-67
2023/06/11 05:15:57;;;;;;;4.53;4.13;;;22.00;91.60;;;;;;5054603;28;20181;-66
2023/06/11 05:18:25;;;;;;;7.65;6.07;;;22.10;92.10;;;;;;5037892;28;20173;-67
2023/06/11 05:20:54;;;;;;;5.95;4.90;;;22.10;91.90;;;;;;5038001;28;20189;-67
2023/06/11 05:23:28;;;;;;;5.80;4.43;;;22.20;92.00;;;;;;5037400;28;20177;-68
2023/06/11 05:26:01;;;;;;;5.20;4.70;;;22.20;92.40;;;;;;5037477;28;20288;-69
2023/06/11 05:28:27;;;;;;;20.98;17.35;;;22.30;92.20;;;;;;5028214;28;20170;-67
2023/06/11 05:30:53;;;;;;;12.02;8.90;;;22.30;92.20;;;;;;5034528;28;20254;-68
2023/06/11 05:33:18;;;;;;;13.38;10.93;;;22.40;92.30;;;;;;5037379;28;20205;-67
2023/06/11 05:35:45;;;;;;;8.32;7.43;;;22.50;92.30;;;;;;5042703;28;20178;-67
2023/06/11 05:38:11;;;;;;;6.72;6.10;;;22.50;92.40;;;;;;5031061;28;20241;-67
2023/06/11 05:40:37;;;;;;;6.38;5.28;;;22.60;92.40;;;;;;5037499;28;20215;-67
2023/06/11 05:43:04;;;;;;;5.68;5.07;;;22.60;92.40;;;;;;5037861;28;20181;-67
2023/06/11 05:45:35;;;;;;;4.95;4.45;;;22.70;92.60;;;;;;5037085;28;20197;-67
2023/06/11 05:48:03;;;;;;;4.95;4.45;;;22.80;93.00;;;;;;5038064;28;20174;-64
2023/06/11 05:50:31;;;;;;;5.00;4.60;;;22.80;92.60;;;;;;5036581;28;20375;-64
2023/06/11 05:52:59;;;;;;;4.95;4.20;;;22.90;92.70;;;;;;5032955;28;20201;-64
2023/06/11 05:55:25;;;;;;;5.53;4.30;;;22.90;93.00;;;;;;5053750;28;20238;-64
2023/06/11 05:57:50;;;;;;;4.72;4.30;;;22.90;92.90;;;;;;5037106;28;20256;-65
2023/06/11 06:00:16;;;;;;;4.72;4.32;;;23.00;92.90;;;;;;5036656;28;20181;-66
2023/06/11 06:02:44;;;;;;;5.18;4.68;;;23.00;93.00;;;;;;5036812;28;20169;-65
2023/06/11 06:05:12;;;;;;;5.38;4.50;;;23.10;93.30;;;;;;5036694;28;20205;-64
2023/06/11 06:07:38;;;;;;;4.78;4.30;;;23.10;93.10;;;;;;5037119;28;20169;-65
2023/06/11 06:10:03;;;;;;;4.78;4.28;;;23.20;93.20;;;;;;5036714;28;20174;-65
2023/06/11 06:12:34;;;;;;;4.88;4.43;;;23.20;93.30;;;;;;5053466;28;20204;-65
2023/06/11 06:14:59;;;;;;;4.80;4.40;;;23.30;93.40;;;;;;5039407;28;20264;-66
2023/06/11 06:17:27;;;;;;;5.25;4.40;;;23.40;93.30;;;;;;5057344;28;20256;-65
2023/06/11 06:19:53;;;;;;;5.10;4.00;;;23.40;93.30;;;;;;5041363;28;20173;-64
2023/06/11 06:22:21;;;;;;;5.38;4.88;;;23.40;93.20;;;;;;5041103;28;20169;-65
2023/06/11 06:24:46;;;;;;;5.32;4.82;;;23.50;93.30;;;;;;5041165;28;20205;-65
2023/06/11 06:27:14;;;;;;;4.57;4.13;;;23.60;93.20;;;;;;5041145;28;20177;-65
2023/06/11 06:29:42;;;;;;;4.78;4.38;;;23.60;93.20;;;;;;5029722;28;20268;-67
2023/06/11 06:32:09;;;;;;;4.80;4.32;;;23.70;93.30;;;;;;5054624;28;20187;-71
2023/06/11 06:34:35;;;;;;;4.60;4.20;;;23.70;93.20;;;;;;5057476;28;20188;-68
2023/06/11 06:37:01;;;;;;;4.82;4.32;;;23.80;93.30;;;;;;5054522;28;20515;-66
2023/06/11 06:39:27;;;;;;;4.55;4.07;;;23.90;93.30;;;;;;5054656;28;20170;-67
2023/06/11 06:41:53;;;;;;;5.72;4.40;;;23.90;93.20;;;;;;5046622;28;20197;-68
2023/06/11 06:44:18;;;;;;;6.13;4.05;;;24.00;93.10;;;;;;5056857;28;20235;-66
2023/06/11 06:46:49;;;;;;;4.95;4.45;;;24.10;93.30;;;;;;5040632;28;20172;-64
2023/06/11 06:49:15;;;;;;;4.88;4.38;;;24.10;92.90;;;;;;5039632;28;20264;-66
2023/06/11 06:51:41;;;;;;;5.93;4.10;;;24.20;92.80;;;;;;5045477;28;20204;-66
2023/06/11 06:54:06;;;;;;;4.93;4.43;;;24.30;92.80;;;;;;5040572;28;20212;-66
2023/06/11 06:56:32;;;;;;;4.60;4.20;;;24.30;92.70;;;;;;5040657;28;20207;-67
2023/06/11 06:59:00;;;;;;;4.43;3.97;;;24.40;92.80;;;;;;5042667;28;20194;-67
2023/06/11 07:01:28;;;;;;;7.15;4.30;;;24.40;92.60;;;;;;5042201;28;20193;-65
2023/06/11 07:03:56;;;;;;;5.05;4.28;;;24.50;92.60;;;;;;5056970;28;20173;-66
2023/06/11 07:06:26;;;;;;;4.15;3.75;;;24.50;92.60;;;;;;5043078;28;20215;-63
2023/06/11 07:08:52;;;;;;;4.85;4.35;;;24.60;92.50;;;;;;5039802;28;20173;-65
2023/06/11 07:11:21;;;;;;;5.03;4.53;;;24.60;92.60;;;;;;5040259;28;20189;-66
2023/06/11 07:13:47;;;;;;;5.15;4.22;;;24.70;92.50;;;;;;5039959;28;20185;-65
2023/06/11 07:16:13;;;;;;;4.18;3.80;;;24.70;92.50;;;;;;5039439;28;20185;-65
2023/06/11 07:18:38;;;;;;;4.25;3.85;;;24.80;92.40;;;;;;5040026;28;20248;-65
2023/06/11 07:21:04;;;;;;;4.85;4.35;;;24.80;92.30;;;;;;5039762;28;20184;-65
2023/06/11 07:23:30;;;;;;;4.28;3.88;;;24.90;92.30;;;;;;5040329;28;20205;-67
2023/06/11 07:25:58;;;;;;;4.38;4.00;;;24.90;92.20;;;;;;5025503;28;20222;-64
2023/06/11 07:28:23;;;;;;;4.88;4.22;;;25.00;92.30;;;;;;5032282;28;20197;-65
2023/06/11 07:30:49;;;;;;;6.13;5.35;;;25.00;92.20;;;;;;5053232;28;20276;-63
2023/06/11 07:33:17;;;;;;;6.07;5.47;;;25.10;92.50;;;;;;5036164;28;20193;-64
2023/06/11 07:35:46;;;;;;;6.03;5.43;;;25.10;92.20;;;;;;5039856;28;20205;-68
2023/06/11 07:38:15;;;;;;;4.40;4.00;;;25.20;92.40;;;;;;5035574;28;20177;-66
2023/06/11 07:40:41;;;;;;;4.22;3.78;;;25.20;92.20;;;;;;5049615;28;20511;-64
2023/06/11 07:43:06;;;;;;;6.05;4.28;;;25.30;92.10;;;;;;5046524;28;20264;-64
2023/06/11 07:45:34;;;;;;;4.03;3.63;;;25.40;92.10;;;;;;5039677;28;20197;-64
2023/06/11 07:48:00;;;;;;;4.30;3.90;;;25.40;92.10;;;;;;5035716;28;20254;-64
2023/06/11 07:50:26;;;;;;;4.25;3.85;;;25.50;92.00;;;;;;5025231;28;20465;-65
2023/06/11 07:52:51;;;;;;;4.18;3.78;;;25.50;91.90;;;;;;5056399;28;20196;-65
2023/06/11 07:55:17;;;;;;;4.65;3.75;;;25.60;92.00;;;;;;5047284;28;20189;-65
2023/06/11 07:57:42;;;;;;;3.75;3.40;;;25.70;91.90;;;;;;5037236;28;20184;-64
2023/06/11 08:00:12;;;;;;;5.50;3.95;;;25.70;91.60;;;;;;5019752;28;20237;-64
2023/06/11 08:02:39;;;;;;;4.57;4.10;;;25.70;91.40;;;;;;5031260;28;20218;-64
2023/06/11 08:05:10;;;;;;;3.50;3.20;;;25.80;91.20;;;;;;5055277;28;20220;-63
2023/06/11 08:07:35;;;;;;;5.38;4.13;;;25.80;91.10;;;;;;5039296;28;20193;-64
2023/06/11 08:10:04;;;;;;;4.55;3.35;;;25.90;91.10;;;;;;5038577;28;20243;-65
2023/06/11 08:12:30;;;;;;;4.00;3.60;;;25.90;91.00;;;;;;5038355;28;20497;-65
2023/06/11 08:14:58;;;;;;;3.67;3.38;;;26.00;91.10;;;;;;5039116;28;20296;-64
2023/06/11 08:17:23;;;;;;;5.30;3.90;;;26.00;91.10;;;;;;5038485;28;20264;-62
2023/06/11 08:19:51;;;;;;;4.70;4.20;;;26.10;90.80;;;;;;5038599;28;20372;-64
2023/06/11 08:22:17;;;;;;;4.00;3.60;;;26.10;90.80;;;;;;5038855;28;20177;-65
2023/06/11 08:24:42;;;;;;;4.05;3.65;;;26.20;90.70;;;;;;5038670;28;20193;-64
2023/06/11 08:27:09;;;;;;;4.07;3.67;;;26.20;90.60;;;;;;5038609;28;20186;-65
2023/06/11 08:29:37;;;;;;;3.40;3.10;;;26.30;90.60;;;;;;5055675;28;20223;-65
2023/06/11 08:32:04;;;;;;;3.58;3.28;;;26.30;90.40;;;;;;5038194;28;20205;-65
2023/06/11 08:34:32;;;;;;;3.60;3.30;;;26.40;90.50;;;;;;5055259;28;20189;-62
2023/06/11 08:36:58;;;;;;;3.65;3.35;;;26.40;90.50;;;;;;5054923;28;20182;-65
2023/06/11 08:39:26;;;;;;;4.43;4.03;;;26.50;90.40;;;;;;5034679;28;20178;-65
2023/06/11 08:41:52;;;;;;;3.90;3.60;;;26.50;90.40;;;;;;5035229;28;20243;-63
2023/06/11 08:44:17;;;;;;;3.75;3.45;;;26.60;90.50;;;;;;5035128;28;20220;-64
2023/06/11 08:46:44;;;;;;;4.60;3.63;;;26.70;90.40;;;;;;5021852;28;20448;-65
2023/06/11 08:49:23;;;;;;;3.72;3.42;;;26.80;90.00;;;;;;5018724;28;20212;-65
2023/06/11 08:51:55;;;;;;;3.58;3.28;;;26.80;88.80;;;;;;5035021;28;20177;-65
2023/06/11 08:54:22;;;;;;;3.35;3.05;;;26.90;89.30;;;;;;5038287;28;20293;-65
2023/06/11 08:56:50;;;;;;;3.85;2.80;;;27.00;89.70;;;;;;5034791;28;20191;-65
2023/06/11 08:59:19;;;;;;;4.07;3.50;;;27.10;88.20;;;;;;5053845;28;20193;-66
2023/06/11 09:01:50;;;;;;;4.18;3.78;;;27.20;88.30;;;;;;5038226;28;20194;-66
2023/06/11 09:04:17;;;;;;;3.88;3.47;;;27.20;88.10;;;;;;5037802;28;20178;-66
2023/06/11 09:06:58;;;;;;;3.50;3.20;;;27.30;88.00;;;;;;5050078;28;20457;-64
2023/06/11 09:09:26;;;;;;;3.75;3.05;;;27.40;88.10;;;;;;5018095;28;20438;-65
2023/06/11 09:11:55;;;;;;;3.38;3.08;;;27.50;85.50;;;;;;5033324;28;20211;-65
2023/06/11 09:14:23;;;;;;;3.40;3.10;;;27.60;84.40;;;;;;5054292;28;20177;-65
2023/06/11 09:16:48;;;;;;;4.25;3.22;;;27.60;83.30;;;;;;5037964;28;20185;-65
2023/06/11 09:19:16;;;;;;;3.35;3.05;;;27.70;82.90;;;;;;5023227;28;20170;-66
2023/06/11 09:21:50;;;;;;;3.30;3.00;;;27.70;82.60;;;;;;5037603;28;20283;-66
2023/06/11 09:24:23;;;;;;;4.28;3.00;;;27.80;80.90;;;;;;5054643;28;20220;-65
2023/06/11 09:26:52;;;;;;;3.60;3.25;;;27.90;81.50;;;;;;5054029;28;20272;-65
2023/06/11 09:29:20;;;;;;;3.92;3.17;;;28.00;79.00;;;;;;5053632;28;20193;-66
2023/06/11 09:31:45;;;;;;;3.63;3.22;;;28.00;79.60;;;;;;5034158;28;20224;-65
2023/06/11 09:34:16;;;;;;;3.20;2.90;;;28.10;79.00;;;;;;5018011;28;20178;-64
2023/06/11 09:36:46;;;;;;;6.32;3.22;;;28.20;78.60;;;;;;5032290;28;20182;-64
2023/06/11 09:39:13;;;;;;;3.55;3.25;;;28.20;76.00;;;;;;5037439;28;20274;-66
2023/06/11 09:41:49;;;;;;;3.75;3.30;;;28.30;75.80;;;;;;5053801;28;20205;-64
2023/06/11 09:44:21;;;;;;;3.88;3.53;;;28.30;72.70;;;;;;5054471;28;20177;-65
2023/06/11 09:46:50;;;;;;;3.92;3.63;;;28.40;74.40;;;;;;5053137;28;20232;-65
2023/06/11 09:49:20;;;;;;;3.70;3.40;;;28.40;74.30;;;;;;5053573;28;20211;-65
2023/06/11 09:51:47;;;;;;;3.22;3.00;;;28.50;74.80;;;;;;5037558;28;20183;-65
2023/06/11 09:54:18;;;;;;;3.65;3.35;;;28.60;75.30;;;;;;5050341;28;20199;-65
2023/06/11 09:56:44;;;;;;;3.60;3.30;;;28.70;74.00;;;;;;5034306;28;20177;-66
2023/06/11 09:59:12;;;;;;;3.80;3.50;;;28.80;74.30;;;;;;5017685;28;20173;-63
2023/06/11 10:01:41;;;;;;;3.95;3.63;;;28.80;73.20;;;;;;5017220;28;20208;-66
2023/06/11 10:04:06;;;;;;;4.07;3.67;;;28.90;72.90;;;;;;5025861;28;20181;-65
2023/06/11 10:06:44;;;;;;;4.13;3.70;;;29.00;73.30;;;;;;5037047;28;20254;-65
2023/06/11 10:09:13;;;;;;;3.70;3.40;;;29.10;72.40;;;;;;5053768;28;20197;-65
2023/06/11 10:11:42;;;;;;;3.50;3.20;;;29.10;71.60;;;;;;5053513;28;20177;-64
2023/06/11 10:14:12;;;;;;;3.38;3.08;;;29.20;71.70;;;;;;5036559;28;20276;-65
2023/06/11 10:16:38;;;;;;;3.95;3.53;;;29.30;70.50;;;;;;5053820;28;20197;-65
2023/06/11 10:19:09;;;;;;;5.97;4.18;;;29.40;71.00;;;;;;5053502;28;20181;-64
2023/06/11 10:21:50;;;;;;;6.30;4.97;;;29.40;69.10;;;;;;5045596;28;20219;-65
2023/06/11 10:24:22;;;;;;;5.50;4.07;;;29.50;68.80;;;;;;5052401;28;20473;-65
2023/06/11 10:27:11;;;;;;;5.18;3.53;;;29.50;68.00;;;;;;5018472;28;20205;-65
2023/06/11 10:29:45;;;;;;;5.07;3.75;;;29.60;66.60;;;;;;5034918;28;20193;-65
2023/06/11 10:32:20;;;;;;;4.57;3.97;;;29.70;64.60;;;;;;5036491;28;20200;-65
2023/06/11 10:34:59;;;;;;;4.50;4.10;;;29.80;64.60;;;;;;5053670;28;20161;-65
2023/06/11 10:37:39;;;;;;;4.32;2.90;;;29.90;64.70;;;;;;5053072;28;20180;-64
2023/06/11 10:40:06;;;;;;;3.75;3.28;;;30.00;65.00;;;;;;5049851;28;20173;-65
2023/06/11 10:42:38;;;;;;;3.60;3.30;;;30.20;66.20;;;;;;5034152;28;20193;-64
2023/06/11 10:45:13;;;;;;;4.03;3.50;;;30.40;65.70;;;;;;5036728;28;20196;-65
2023/06/11 10:47:54;;;;;;;4.00;3.70;;;30.60;65.00;;;;;;5053169;28;20168;-64
2023/06/11 10:50:31;;;;;;;3.42;3.10;;;30.70;63.30;;;;;;5053125;28;20189;-66
2023/06/11 10:53:01;;;;;;;4.18;3.30;;;30.90;62.60;;;;;;5053570;28;20171;-65
2023/06/11 10:55:29;;;;;;;3.83;3.30;;;31.00;64.40;;;;;;5052703;28;20189;-65
2023/06/11 10:58:00;;;;;;;4.30;3.65;;;31.20;65.30;;;;;;5031318;28;20181;-65
2023/06/11 11:00:32;;;;;;;6.35;4.18;;;31.30;62.60;;;;;;5017072;28;20166;-66
2023/06/11 11:02:59;;;;;;;3.97;3.67;;;31.50;62.20;;;;;;5056850;28;20204;-66
2023/06/11 11:05:28;;;;;;;4.18;3.78;;;31.60;62.70;;;;;;5056479;28;20196;-65
2023/06/11 11:07:53;;;;;;;5.07;3.80;;;31.80;62.80;;;;;;5056645;28;20169;-66
2023/06/11 11:10:24;;;;;;;3.92;3.63;;;31.90;62.30;;;;;;5040115;28;20203;-65
2023/06/11 11:12:55;;;;;;;3.78;3.38;;;32.00;60.60;;;;;;5040024;28;20208;-67
2023/06/11 11:15:21;;;;;;;3.70;3.35;;;32.20;61.70;;;;;;5039300;28;20236;-63
2023/06/11 11:17:48;;;;;;;5.07;3.20;;;32.30;60.00;;;;;;5040519;28;20173;-66
2023/06/11 11:20:17;;;;;;;3.78;3.20;;;32.40;59.90;;;;;;5039845;28;20173;-66
2023/06/11 11:22:48;;;;;;;3.63;3.20;;;32.50;60.10;;;;;;5056289;28;20164;-65
2023/06/11 11:25:15;;;;;;;3.42;3.13;;;32.60;58.60;;;;;;5039896;28;20196;-66
2023/06/11 11:27:43;;;;;;;3.60;3.30;;;32.70;59.60;;;;;;5039613;28;20177;-65
2023/06/11 11:30:12;;;;;;;3.60;3.30;;;32.90;59.40;;;;;;5055955;28;20193;-66
2023/06/11 11:32:42;;;;;;;5.15;3.90;;;33.00;57.50;;;;;;5039793;28;20180;-65
2023/06/11 11:35:08;;;;;;;3.78;3.40;;;33.10;57.00;;;;;;5036312;28;20201;-66
2023/06/11 11:37:34;;;;;;;3.60;3.30;;;33.10;56.80;;;;;;5020735;28;20239;-66
2023/06/11 11:40:08;;;;;;;3.67;3.30;;;33.20;56.20;;;;;;5020216;28;20264;-65
2023/06/11 11:42:57;;;;;;;3.50;3.20;;;33.20;54.10;;;;;;5033829;28;20196;-65
2023/06/11 11:45:33;;;;;;;3.40;3.10;;;33.20;51.80;;;;;;5049791;28;20201;-65
2023/06/11 11:48:00;;;;;;;3.50;3.20;;;33.10;52.90;;;;;;5035961;28;20196;-64
2023/06/11 11:50:30;;;;;;;5.85;3.15;;;33.00;53.70;;;;;;5019564;28;20243;-66
2023/06/11 11:53:13;;;;;;;3.88;3.47;;;33.00;52.80;;;;;;5022820;28;20173;-64
2023/06/11 11:55:41;;;;;;;3.97;3.50;;;32.90;51.40;;;;;;5039712;28;20199;-65
2023/06/11 11:58:12;;;;;;;3.47;3.15;;;32.90;53.60;;;;;;5032602;28;20540;-66
2023/06/11 12:00:46;;;;;;;3.30;3.00;;;32.90;52.40;;;;;;5039251;28;20180;-66
2023/06/11 12:03:12;;;;;;;3.40;3.10;;;32.90;52.10;;;;;;5020509;28;20189;-65
2023/06/11 12:05:40;;;;;;;3.28;2.97;;;32.90;52.90;;;;;;5025824;28;20207;-65
2023/06/11 12:08:09;;;;;;;3.30;2.97;;;33.00;52.90;;;;;;5055729;28;20165;-65
2023/06/11 12:10:37;;;;;;;4.00;3.10;;;33.20;52.80;;;;;;5056285;28;20231;-66
2023/06/11 12:13:07;;;;;;;3.83;3.40;;;33.30;52.60;;;;;;5035466;28;20189;-66
2023/06/11 12:15:33;;;;;;;5.22;3.38;;;33.40;51.30;;;;;;5036006;28;20162;-64
2023/06/11 12:17:58;;;;;;;4.20;3.53;;;33.50;51.70;;;;;;5052535;28;20262;-65
2023/06/11 12:20:24;;;;;;;4.53;2.90;;;33.70;51.70;;;;;;5038631;28;20177;-65
2023/06/11 12:22:51;;;;;;;5.25;3.45;;;33.90;52.50;;;;;;5056284;28;20169;-66
2023/06/11 12:25:22;;;;;;;5.20;3.08;;;34.00;51.20;;;;;;5038641;28;20216;-64
2023/06/11 12:27:50;;;;;;;3.53;3.17;;;34.10;50.50;;;;;;5035052;28;20161;-66
2023/06/11 12:30:15;;;;;;;3.50;3.20;;;34.10;50.30;;;;;;5019112;28;20170;-65
2023/06/11 12:32:41;;;;;;;3.90;3.10;;;34.10;50.40;;;;;;5029120;28;20251;-65
2023/06/11 12:35:08;;;;;;;4.30;3.03;;;34.20;50.20;;;;;;5040899;28;20486;-65
2023/06/11 12:37:34;;;;;;;3.30;3.00;;;34.30;50.50;;;;;;5055590;28;20242;-65
2023/06/11 12:40:00;;;;;;;3.25;2.97;;;34.40;50.60;;;;;;5054974;28;20176;-65
2023/06/11 12:42:27;;;;;;;3.30;2.97;;;34.50;50.20;;;;;;5038304;28;20180;-65
2023/06/11 12:44:53;;;;;;;3.38;2.90;;;34.60;49.50;;;;;;5038315;28;20204;-65
2023/06/11 12:47:19;;;;;;;4.05;3.13;;;34.60;49.60;;;;;;5037782;28;20180;-66
2023/06/11 12:49:45;;;;;;;3.60;3.30;;;34.60;49.40;;;;;;5037219;28;20196;-65
2023/06/11 12:52:11;;;;;;;4.30;2.90;;;34.60;49.10;;;;;;5054590;28;20193;-65